<?xml version="1.0" encoding="UTF-8" standalone="no" ?>
<gpx xmlns="http://www.topografix.com/GPX/1/1" xmlns:xsi="http://www.w3.org/2001/XMLSchema-instance" xsi:schemaLocation="http://www.topografix.com/GPX/1/1 http://www.topografix.com/GPX/1/1/gpx.xsd" version="1.1" creator="VisuGPX - https://www.visugpx.com">
  <metadata>
    <name>Tour de France 2019</name>
    <desc><![CDATA[4272km en 2 mois en tandem avec notre petit chien dans le panier avant]]></desc>
  </metadata>
  <trk>
    <name><![CDATA[Tracé 20190921-090206]]></name>
    <trkseg>
      <trkpt lat="49.68101" lon="4.9784">
        <ele>210.2</ele>
        <time>2019-09-21T07:03:09.000Z</time>
      </trkpt>
      <trkpt lat="49.68012" lon="4.97763">
        <ele>193.76</ele>
        <time>2019-09-21T07:03:42.000Z</time>
      </trkpt>
      <trkpt lat="49.67895" lon="4.97735">
        <ele>176.878</ele>
        <time>2019-09-21T07:04:12.000Z</time>
      </trkpt>
      <trkpt lat="49.67727" lon="4.97812">
        <ele>175.544</ele>
        <time>2019-09-21T07:04:42.000Z</time>
      </trkpt>
      <trkpt lat="49.67573" lon="4.97847">
        <ele>177.704</ele>
        <time>2019-09-21T07:05:12.000Z</time>
      </trkpt>
      <trkpt lat="49.6738" lon="4.9785">
        <ele>172.221</ele>
        <time>2019-09-21T07:05:42.000Z</time>
      </trkpt>
      <trkpt lat="49.67311" lon="4.98015">
        <ele>159.769</ele>
        <time>2019-09-21T07:06:12.000Z</time>
      </trkpt>
      <trkpt lat="49.67296" lon="4.98069">
        <ele>158.305</ele>
        <time>2019-09-21T07:07:54.000Z</time>
      </trkpt>
      <trkpt lat="49.67257" lon="4.98229">
        <ele>156.4</ele>
        <time>2019-09-21T07:08:24.000Z</time>
      </trkpt>
      <trkpt lat="49.67154" lon="4.98364">
        <ele>160.07</ele>
        <time>2019-09-21T07:08:54.000Z</time>
      </trkpt>
      <trkpt lat="49.67009" lon="4.9836">
        <ele>159.073</ele>
        <time>2019-09-21T07:09:24.000Z</time>
      </trkpt>
      <trkpt lat="49.66855" lon="4.98331">
        <ele>157.948</ele>
        <time>2019-09-21T07:09:54.000Z</time>
      </trkpt>
      <trkpt lat="49.66728" lon="4.9827">
        <ele>152.653</ele>
        <time>2019-09-21T07:10:24.000Z</time>
      </trkpt>
      <trkpt lat="49.66641" lon="4.98223">
        <ele>157.543</ele>
        <time>2019-09-21T07:10:54.000Z</time>
      </trkpt>
      <trkpt lat="49.66459" lon="4.98273">
        <ele>152.642</ele>
        <time>2019-09-21T07:11:24.000Z</time>
      </trkpt>
      <trkpt lat="49.66315" lon="4.98348">
        <ele>152.217</ele>
        <time>2019-09-21T07:11:54.000Z</time>
      </trkpt>
      <trkpt lat="49.66199" lon="4.98475">
        <ele>152.549</ele>
        <time>2019-09-21T07:12:24.000Z</time>
      </trkpt>
      <trkpt lat="49.66101" lon="4.98624">
        <ele>151.232</ele>
        <time>2019-09-21T07:12:54.000Z</time>
      </trkpt>
      <trkpt lat="49.66019" lon="4.98565">
        <ele>153.571</ele>
        <time>2019-09-21T07:13:24.000Z</time>
      </trkpt>
      <trkpt lat="49.65943" lon="4.98554">
        <ele>157.487</ele>
        <time>2019-09-21T07:13:54.000Z</time>
      </trkpt>
      <trkpt lat="49.65834" lon="4.98773">
        <ele>157.819</ele>
        <time>2019-09-21T07:14:24.000Z</time>
      </trkpt>
      <trkpt lat="49.65743" lon="4.98943">
        <ele>154.523</ele>
        <time>2019-09-21T07:14:54.000Z</time>
      </trkpt>
      <trkpt lat="49.65644" lon="4.99105">
        <ele>153.525</ele>
        <time>2019-09-21T07:15:24.000Z</time>
      </trkpt>
      <trkpt lat="49.65551" lon="4.99265">
        <ele>157.086</ele>
        <time>2019-09-21T07:15:54.000Z</time>
      </trkpt>
      <trkpt lat="49.65457" lon="4.99427">
        <ele>156.229</ele>
        <time>2019-09-21T07:16:24.000Z</time>
      </trkpt>
      <trkpt lat="49.65365" lon="4.99582">
        <ele>156.897</ele>
        <time>2019-09-21T07:16:54.000Z</time>
      </trkpt>
      <trkpt lat="49.65288" lon="4.99752">
        <ele>159.581</ele>
        <time>2019-09-21T07:17:24.000Z</time>
      </trkpt>
      <trkpt lat="49.6523" lon="4.99877">
        <ele>161.7</ele>
        <time>2019-09-21T07:17:54.000Z</time>
      </trkpt>
      <trkpt lat="49.65181" lon="4.99938">
        <ele>160.989</ele>
        <time>2019-09-21T07:19:18.000Z</time>
      </trkpt>
      <trkpt lat="49.65097" lon="4.99856">
        <ele>157.94</ele>
        <time>2019-09-21T07:19:51.000Z</time>
      </trkpt>
      <trkpt lat="49.65027" lon="4.9993">
        <ele>164.248</ele>
        <time>2019-09-21T07:20:21.000Z</time>
      </trkpt>
      <trkpt lat="49.64957" lon="5.00078">
        <ele>166.448</ele>
        <time>2019-09-21T07:20:51.000Z</time>
      </trkpt>
      <trkpt lat="49.64885" lon="5.00231">
        <ele>161.357</ele>
        <time>2019-09-21T07:21:21.000Z</time>
      </trkpt>
      <trkpt lat="49.64811" lon="5.00388">
        <ele>162.871</ele>
        <time>2019-09-21T07:21:51.000Z</time>
      </trkpt>
      <trkpt lat="49.64744" lon="5.00556">
        <ele>163.11</ele>
        <time>2019-09-21T07:22:21.000Z</time>
      </trkpt>
      <trkpt lat="49.64685" lon="5.00682">
        <ele>161.902</ele>
        <time>2019-09-21T07:22:51.000Z</time>
      </trkpt>
      <trkpt lat="49.6463" lon="5.00803">
        <ele>164.666</ele>
        <time>2019-09-21T07:23:21.000Z</time>
      </trkpt>
      <trkpt lat="49.64575" lon="5.00921">
        <ele>165.886</ele>
        <time>2019-09-21T07:23:51.000Z</time>
      </trkpt>
      <trkpt lat="49.64499" lon="5.01056">
        <ele>170.15</ele>
        <time>2019-09-21T07:24:21.000Z</time>
      </trkpt>
      <trkpt lat="49.64425" lon="5.0122">
        <ele>166.683</ele>
        <time>2019-09-21T07:24:51.000Z</time>
      </trkpt>
      <trkpt lat="49.64394" lon="5.01476">
        <ele>166.276</ele>
        <time>2019-09-21T07:25:21.000Z</time>
      </trkpt>
      <trkpt lat="49.64362" lon="5.01728">
        <ele>161.966</ele>
        <time>2019-09-21T07:25:51.000Z</time>
      </trkpt>
      <trkpt lat="49.64345" lon="5.01863">
        <ele>164.958</ele>
        <time>2019-09-21T07:26:21.000Z</time>
      </trkpt>
      <trkpt lat="49.64329" lon="5.01988">
        <ele>165.885</ele>
        <time>2019-09-21T07:26:51.000Z</time>
      </trkpt>
      <trkpt lat="49.64309" lon="5.02113">
        <ele>171.126</ele>
        <time>2019-09-21T07:27:21.000Z</time>
      </trkpt>
      <trkpt lat="49.64274" lon="5.02211">
        <ele>175.602</ele>
        <time>2019-09-21T07:27:51.000Z</time>
      </trkpt>
      <trkpt lat="49.64223" lon="5.02304">
        <ele>177.952</ele>
        <time>2019-09-21T07:28:21.000Z</time>
      </trkpt>
      <trkpt lat="49.64149" lon="5.02408">
        <ele>180.966</ele>
        <time>2019-09-21T07:28:51.000Z</time>
      </trkpt>
      <trkpt lat="49.64057" lon="5.02485">
        <ele>177.244</ele>
        <time>2019-09-21T07:29:21.000Z</time>
      </trkpt>
      <trkpt lat="49.63973" lon="5.02522">
        <ele>178.809</ele>
        <time>2019-09-21T07:29:51.000Z</time>
      </trkpt>
      <trkpt lat="49.63905" lon="5.02535">
        <ele>181.657</ele>
        <time>2019-09-21T07:30:21.000Z</time>
      </trkpt>
      <trkpt lat="49.63838" lon="5.02546">
        <ele>183.971</ele>
        <time>2019-09-21T07:30:51.000Z</time>
      </trkpt>
      <trkpt lat="49.63737" lon="5.02561">
        <ele>188.161</ele>
        <time>2019-09-21T07:31:21.000Z</time>
      </trkpt>
      <trkpt lat="49.63536" lon="5.02612">
        <ele>176.541</ele>
        <time>2019-09-21T07:31:51.000Z</time>
      </trkpt>
      <trkpt lat="49.63257" lon="5.02698">
        <ele>162.907</ele>
        <time>2019-09-21T07:32:21.000Z</time>
      </trkpt>
      <trkpt lat="49.63099" lon="5.0283">
        <ele>160.376</ele>
        <time>2019-09-21T07:32:51.000Z</time>
      </trkpt>
      <trkpt lat="49.62938" lon="5.02855">
        <ele>159.492</ele>
        <time>2019-09-21T07:33:21.000Z</time>
      </trkpt>
      <trkpt lat="49.62795" lon="5.02862">
        <ele>159.602</ele>
        <time>2019-09-21T07:33:51.000Z</time>
      </trkpt>
      <trkpt lat="49.62655" lon="5.02871">
        <ele>159.887</ele>
        <time>2019-09-21T07:34:21.000Z</time>
      </trkpt>
      <trkpt lat="49.62516" lon="5.02878">
        <ele>159.871</ele>
        <time>2019-09-21T07:34:51.000Z</time>
      </trkpt>
      <trkpt lat="49.62388" lon="5.02917">
        <ele>160.36</ele>
        <time>2019-09-21T07:35:21.000Z</time>
      </trkpt>
      <trkpt lat="49.62246" lon="5.0294">
        <ele>162.278</ele>
        <time>2019-09-21T07:35:51.000Z</time>
      </trkpt>
      <trkpt lat="49.6212" lon="5.02968">
        <ele>157.692</ele>
        <time>2019-09-21T07:36:21.000Z</time>
      </trkpt>
      <trkpt lat="49.61987" lon="5.02968">
        <ele>156.578</ele>
        <time>2019-09-21T07:36:51.000Z</time>
      </trkpt>
      <trkpt lat="49.61875" lon="5.03059">
        <ele>155.126</ele>
        <time>2019-09-21T07:37:21.000Z</time>
      </trkpt>
      <trkpt lat="49.61777" lon="5.03168">
        <ele>158.455</ele>
        <time>2019-09-21T07:37:51.000Z</time>
      </trkpt>
      <trkpt lat="49.61673" lon="5.03249">
        <ele>157.012</ele>
        <time>2019-09-21T07:38:21.000Z</time>
      </trkpt>
      <trkpt lat="49.6159" lon="5.03347">
        <ele>159.93</ele>
        <time>2019-09-21T07:38:51.000Z</time>
      </trkpt>
      <trkpt lat="49.61629" lon="5.03551">
        <ele>159.793</ele>
        <time>2019-09-21T07:39:21.000Z</time>
      </trkpt>
      <trkpt lat="49.61591" lon="5.03775">
        <ele>155.374</ele>
        <time>2019-09-21T07:39:51.000Z</time>
      </trkpt>
      <trkpt lat="49.61538" lon="5.03954">
        <ele>153.541</ele>
        <time>2019-09-21T07:40:21.000Z</time>
      </trkpt>
      <trkpt lat="49.61484" lon="5.04141">
        <ele>155.591</ele>
        <time>2019-09-21T07:40:51.000Z</time>
      </trkpt>
      <trkpt lat="49.6139" lon="5.04281">
        <ele>156.629</ele>
        <time>2019-09-21T07:41:21.000Z</time>
      </trkpt>
      <trkpt lat="49.61285" lon="5.04388">
        <ele>157.101</ele>
        <time>2019-09-21T07:41:51.000Z</time>
      </trkpt>
      <trkpt lat="49.61187" lon="5.04494">
        <ele>156.149</ele>
        <time>2019-09-21T07:42:21.000Z</time>
      </trkpt>
      <trkpt lat="49.61081" lon="5.04599">
        <ele>156.301</ele>
        <time>2019-09-21T07:42:51.000Z</time>
      </trkpt>
      <trkpt lat="49.60974" lon="5.04707">
        <ele>154.324</ele>
        <time>2019-09-21T07:43:21.000Z</time>
      </trkpt>
      <trkpt lat="49.60871" lon="5.04823">
        <ele>155.713</ele>
        <time>2019-09-21T07:43:51.000Z</time>
      </trkpt>
      <trkpt lat="49.60779" lon="5.04945">
        <ele>157.328</ele>
        <time>2019-09-21T07:44:21.000Z</time>
      </trkpt>
      <trkpt lat="49.60683" lon="5.05088">
        <ele>157.563</ele>
        <time>2019-09-21T07:44:51.000Z</time>
      </trkpt>
      <trkpt lat="49.60594" lon="5.05235">
        <ele>157.106</ele>
        <time>2019-09-21T07:45:21.000Z</time>
      </trkpt>
      <trkpt lat="49.60524" lon="5.05397">
        <ele>156.162</ele>
        <time>2019-09-21T07:45:51.000Z</time>
      </trkpt>
      <trkpt lat="49.60457" lon="5.05553">
        <ele>155.749</ele>
        <time>2019-09-21T07:46:21.000Z</time>
      </trkpt>
      <trkpt lat="49.60403" lon="5.05727">
        <ele>154.866</ele>
        <time>2019-09-21T07:46:51.000Z</time>
      </trkpt>
      <trkpt lat="49.60366" lon="5.05906">
        <ele>153.639</ele>
        <time>2019-09-21T07:47:21.000Z</time>
      </trkpt>
      <trkpt lat="49.60313" lon="5.06073">
        <ele>157.887</ele>
        <time>2019-09-21T07:47:51.000Z</time>
      </trkpt>
      <trkpt lat="49.60221" lon="5.06193">
        <ele>155.645</ele>
        <time>2019-09-21T07:48:21.000Z</time>
      </trkpt>
      <trkpt lat="49.60122" lon="5.06295">
        <ele>157.75</ele>
        <time>2019-09-21T07:48:51.000Z</time>
      </trkpt>
      <trkpt lat="49.6004" lon="5.06253">
        <ele>168.026</ele>
        <time>2019-09-21T07:49:24.000Z</time>
      </trkpt>
      <trkpt lat="49.59996" lon="5.06135">
        <ele>178.999</ele>
        <time>2019-09-21T07:49:54.000Z</time>
      </trkpt>
      <trkpt lat="49.59929" lon="5.0608">
        <ele>175.941</ele>
        <time>2019-09-21T07:50:24.000Z</time>
      </trkpt>
      <trkpt lat="49.59828" lon="5.06113">
        <ele>171.406</ele>
        <time>2019-09-21T07:50:54.000Z</time>
      </trkpt>
      <trkpt lat="49.59722" lon="5.06149">
        <ele>164.76</ele>
        <time>2019-09-21T07:51:24.000Z</time>
      </trkpt>
      <trkpt lat="49.59651" lon="5.06172">
        <ele>165.901</ele>
        <time>2019-09-21T08:03:45.000Z</time>
      </trkpt>
      <trkpt lat="49.59549" lon="5.06181">
        <ele>165.975</ele>
        <time>2019-09-21T08:04:15.000Z</time>
      </trkpt>
      <trkpt lat="49.59455" lon="5.0607">
        <ele>170.341</ele>
        <time>2019-09-21T08:04:45.000Z</time>
      </trkpt>
      <trkpt lat="49.59371" lon="5.05947">
        <ele>170.593</ele>
        <time>2019-09-21T08:05:15.000Z</time>
      </trkpt>
      <trkpt lat="49.59299" lon="5.05844">
        <ele>172.441</ele>
        <time>2019-09-21T08:05:45.000Z</time>
      </trkpt>
      <trkpt lat="49.59237" lon="5.05699">
        <ele>171.652</ele>
        <time>2019-09-21T08:06:15.000Z</time>
      </trkpt>
      <trkpt lat="49.59177" lon="5.05548">
        <ele>172</ele>
        <time>2019-09-21T08:06:45.000Z</time>
      </trkpt>
      <trkpt lat="49.59116" lon="5.05416">
        <ele>175.001</ele>
        <time>2019-09-21T08:07:15.000Z</time>
      </trkpt>
      <trkpt lat="49.59059" lon="5.05297">
        <ele>177.52</ele>
        <time>2019-09-21T08:07:45.000Z</time>
      </trkpt>
      <trkpt lat="49.58997" lon="5.05139">
        <ele>176.945</ele>
        <time>2019-09-21T08:08:15.000Z</time>
      </trkpt>
      <trkpt lat="49.58893" lon="5.04901">
        <ele>172.806</ele>
        <time>2019-09-21T08:08:45.000Z</time>
      </trkpt>
      <trkpt lat="49.58786" lon="5.04686">
        <ele>168.629</ele>
        <time>2019-09-21T08:09:15.000Z</time>
      </trkpt>
      <trkpt lat="49.58665" lon="5.04501">
        <ele>169.266</ele>
        <time>2019-09-21T08:09:45.000Z</time>
      </trkpt>
      <trkpt lat="49.58568" lon="5.04305">
        <ele>170.806</ele>
        <time>2019-09-21T08:10:15.000Z</time>
      </trkpt>
      <trkpt lat="49.58479" lon="5.04211">
        <ele>172.728</ele>
        <time>2019-09-21T08:10:45.000Z</time>
      </trkpt>
      <trkpt lat="49.58396" lon="5.04113">
        <ele>174.526</ele>
        <time>2019-09-21T08:11:15.000Z</time>
      </trkpt>
      <trkpt lat="49.58339" lon="5.03936">
        <ele>174.678</ele>
        <time>2019-09-21T08:11:45.000Z</time>
      </trkpt>
      <trkpt lat="49.58287" lon="5.03803">
        <ele>177.786</ele>
        <time>2019-09-21T08:12:15.000Z</time>
      </trkpt>
      <trkpt lat="49.58248" lon="5.03671">
        <ele>179.65</ele>
        <time>2019-09-21T08:12:45.000Z</time>
      </trkpt>
      <trkpt lat="49.58213" lon="5.035">
        <ele>184.099</ele>
        <time>2019-09-21T08:13:15.000Z</time>
      </trkpt>
      <trkpt lat="49.58199" lon="5.03364">
        <ele>189.249</ele>
        <time>2019-09-21T08:13:45.000Z</time>
      </trkpt>
      <trkpt lat="49.58159" lon="5.03277">
        <ele>189.821</ele>
        <time>2019-09-21T08:14:15.000Z</time>
      </trkpt>
      <trkpt lat="49.58083" lon="5.03193">
        <ele>188.548</ele>
        <time>2019-09-21T08:14:45.000Z</time>
      </trkpt>
      <trkpt lat="49.5799" lon="5.03141">
        <ele>190.39</ele>
        <time>2019-09-21T08:15:15.000Z</time>
      </trkpt>
      <trkpt lat="49.57886" lon="5.03113">
        <ele>189.942</ele>
        <time>2019-09-21T08:15:45.000Z</time>
      </trkpt>
      <trkpt lat="49.57743" lon="5.02996">
        <ele>187.588</ele>
        <time>2019-09-21T08:16:15.000Z</time>
      </trkpt>
      <trkpt lat="49.57616" lon="5.02798">
        <ele>182.304</ele>
        <time>2019-09-21T08:16:45.000Z</time>
      </trkpt>
      <trkpt lat="49.57487" lon="5.02645">
        <ele>184.913</ele>
        <time>2019-09-21T08:17:15.000Z</time>
      </trkpt>
      <trkpt lat="49.57358" lon="5.0252">
        <ele>186.17</ele>
        <time>2019-09-21T08:17:45.000Z</time>
      </trkpt>
      <trkpt lat="49.57239" lon="5.02411">
        <ele>186.351</ele>
        <time>2019-09-21T08:18:15.000Z</time>
      </trkpt>
      <trkpt lat="49.57056" lon="5.02255">
        <ele>180.056</ele>
        <time>2019-09-21T08:18:45.000Z</time>
      </trkpt>
      <trkpt lat="49.56825" lon="5.02012">
        <ele>173.9</ele>
        <time>2019-09-21T08:19:15.000Z</time>
      </trkpt>
      <trkpt lat="49.5674" lon="5.01888">
        <ele>176.297</ele>
        <time>2019-09-21T08:19:45.000Z</time>
      </trkpt>
      <trkpt lat="49.56669" lon="5.01703">
        <ele>189.859</ele>
        <time>2019-09-21T08:20:15.000Z</time>
      </trkpt>
      <trkpt lat="49.56638" lon="5.01492">
        <ele>192.621</ele>
        <time>2019-09-21T08:20:45.000Z</time>
      </trkpt>
      <trkpt lat="49.56566" lon="5.01343">
        <ele>184.465</ele>
        <time>2019-09-21T08:21:15.000Z</time>
      </trkpt>
      <trkpt lat="49.56496" lon="5.01349">
        <ele>184.654</ele>
        <time>2019-09-21T08:21:45.000Z</time>
      </trkpt>
      <trkpt lat="49.56426" lon="5.01346">
        <ele>189.264</ele>
        <time>2019-09-21T08:22:15.000Z</time>
      </trkpt>
      <trkpt lat="49.56328" lon="5.01263">
        <ele>185.065</ele>
        <time>2019-09-21T08:22:45.000Z</time>
      </trkpt>
      <trkpt lat="49.56207" lon="5.01146">
        <ele>183.013</ele>
        <time>2019-09-21T08:23:15.000Z</time>
      </trkpt>
      <trkpt lat="49.56056" lon="5.0099">
        <ele>177.482</ele>
        <time>2019-09-21T08:23:45.000Z</time>
      </trkpt>
      <trkpt lat="49.55877" lon="5.00925">
        <ele>176.174</ele>
        <time>2019-09-21T08:24:15.000Z</time>
      </trkpt>
      <trkpt lat="49.55715" lon="5.00952">
        <ele>175.871</ele>
        <time>2019-09-21T08:24:45.000Z</time>
      </trkpt>
      <trkpt lat="49.55601" lon="5.01069">
        <ele>176.35</ele>
        <time>2019-09-21T08:25:15.000Z</time>
      </trkpt>
      <trkpt lat="49.55514" lon="5.0118">
        <ele>177.509</ele>
        <time>2019-09-21T08:25:45.000Z</time>
      </trkpt>
      <trkpt lat="49.55425" lon="5.01206">
        <ele>180.04</ele>
        <time>2019-09-21T08:26:15.000Z</time>
      </trkpt>
      <trkpt lat="49.55357" lon="5.01185">
        <ele>186.317</ele>
        <time>2019-09-21T08:26:45.000Z</time>
      </trkpt>
      <trkpt lat="49.55241" lon="5.01152">
        <ele>184.345</ele>
        <time>2019-09-21T08:27:15.000Z</time>
      </trkpt>
      <trkpt lat="49.55112" lon="5.01117">
        <ele>182.756</ele>
        <time>2019-09-21T08:27:45.000Z</time>
      </trkpt>
      <trkpt lat="49.54996" lon="5.00971">
        <ele>182.836</ele>
        <time>2019-09-21T08:28:15.000Z</time>
      </trkpt>
      <trkpt lat="49.54851" lon="5.00827">
        <ele>186.275</ele>
        <time>2019-09-21T08:28:45.000Z</time>
      </trkpt>
      <trkpt lat="49.54702" lon="5.00804">
        <ele>187.478</ele>
        <time>2019-09-21T08:29:15.000Z</time>
      </trkpt>
      <trkpt lat="49.546" lon="5.00794">
        <ele>192.62</ele>
        <time>2019-09-21T08:29:45.000Z</time>
      </trkpt>
      <trkpt lat="49.54524" lon="5.00782">
        <ele>202.981</ele>
        <time>2019-09-21T08:30:15.000Z</time>
      </trkpt>
      <trkpt lat="49.54441" lon="5.00804">
        <ele>198.643</ele>
        <time>2019-09-21T08:30:48.000Z</time>
      </trkpt>
      <trkpt lat="49.54422" lon="5.00886">
        <ele>196.641</ele>
        <time>2019-09-21T08:31:18.000Z</time>
      </trkpt>
      <trkpt lat="49.54408" lon="5.00961">
        <ele>201.693</ele>
        <time>2019-09-21T08:31:48.000Z</time>
      </trkpt>
      <trkpt lat="49.54392" lon="5.01041">
        <ele>205.788</ele>
        <time>2019-09-21T08:32:21.000Z</time>
      </trkpt>
      <trkpt lat="49.54381" lon="5.01123">
        <ele>206.306</ele>
        <time>2019-09-21T08:32:51.000Z</time>
      </trkpt>
      <trkpt lat="49.54366" lon="5.01227">
        <ele>212.416</ele>
        <time>2019-09-21T08:33:21.000Z</time>
      </trkpt>
      <trkpt lat="49.54358" lon="5.01358">
        <ele>208.725</ele>
        <time>2019-09-21T08:33:51.000Z</time>
      </trkpt>
      <trkpt lat="49.54347" lon="5.01488">
        <ele>208.07</ele>
        <time>2019-09-21T08:34:21.000Z</time>
      </trkpt>
      <trkpt lat="49.54336" lon="5.01602">
        <ele>210.416</ele>
        <time>2019-09-21T08:34:51.000Z</time>
      </trkpt>
      <trkpt lat="49.5434" lon="5.01689">
        <ele>214.884</ele>
        <time>2019-09-21T08:35:24.000Z</time>
      </trkpt>
      <trkpt lat="49.54349" lon="5.01767">
        <ele>217.647</ele>
        <time>2019-09-21T08:35:54.000Z</time>
      </trkpt>
      <trkpt lat="49.54356" lon="5.01848">
        <ele>220.471</ele>
        <time>2019-09-21T08:36:24.000Z</time>
      </trkpt>
      <trkpt lat="49.54365" lon="5.01941">
        <ele>222.422</ele>
        <time>2019-09-21T08:36:54.000Z</time>
      </trkpt>
      <trkpt lat="49.54383" lon="5.02044">
        <ele>227.524</ele>
        <time>2019-09-21T08:37:24.000Z</time>
      </trkpt>
      <trkpt lat="49.54391" lon="5.02183">
        <ele>229.631</ele>
        <time>2019-09-21T08:53:36.000Z</time>
      </trkpt>
      <trkpt lat="49.54398" lon="5.02482">
        <ele>212.235</ele>
        <time>2019-09-21T08:54:06.000Z</time>
      </trkpt>
      <trkpt lat="49.54351" lon="5.02769">
        <ele>202.604</ele>
        <time>2019-09-21T08:54:36.000Z</time>
      </trkpt>
      <trkpt lat="49.54338" lon="5.02876">
        <ele>208.39</ele>
        <time>2019-09-21T08:55:06.000Z</time>
      </trkpt>
      <trkpt lat="49.54318" lon="5.02988">
        <ele>213.487</ele>
        <time>2019-09-21T08:55:36.000Z</time>
      </trkpt>
      <trkpt lat="49.54291" lon="5.0317">
        <ele>209.283</ele>
        <time>2019-09-21T08:56:06.000Z</time>
      </trkpt>
      <trkpt lat="49.54252" lon="5.03419">
        <ele>202.719</ele>
        <time>2019-09-21T08:56:36.000Z</time>
      </trkpt>
      <trkpt lat="49.54236" lon="5.03529">
        <ele>207.338</ele>
        <time>2019-09-21T08:57:06.000Z</time>
      </trkpt>
      <trkpt lat="49.54222" lon="5.03613">
        <ele>212.906</ele>
        <time>2019-09-21T08:57:36.000Z</time>
      </trkpt>
      <trkpt lat="49.54209" lon="5.03697">
        <ele>217.199</ele>
        <time>2019-09-21T08:58:06.000Z</time>
      </trkpt>
      <trkpt lat="49.5419" lon="5.03807">
        <ele>218.147</ele>
        <time>2019-09-21T08:58:36.000Z</time>
      </trkpt>
      <trkpt lat="49.54147" lon="5.04092">
        <ele>209.604</ele>
        <time>2019-09-21T08:59:06.000Z</time>
      </trkpt>
      <trkpt lat="49.54096" lon="5.04447">
        <ele>204.203</ele>
        <time>2019-09-21T08:59:36.000Z</time>
      </trkpt>
      <trkpt lat="49.54008" lon="5.04813">
        <ele>192.609</ele>
        <time>2019-09-21T09:00:06.000Z</time>
      </trkpt>
      <trkpt lat="49.53869" lon="5.05262">
        <ele>177.624</ele>
        <time>2019-09-21T09:00:36.000Z</time>
      </trkpt>
      <trkpt lat="49.53848" lon="5.055">
        <ele>172.762</ele>
        <time>2019-09-21T09:01:06.000Z</time>
      </trkpt>
      <trkpt lat="49.53841" lon="5.05601">
        <ele>180.51</ele>
        <time>2019-09-21T09:01:36.000Z</time>
      </trkpt>
      <trkpt lat="49.53835" lon="5.05657">
        <ele>188.651</ele>
        <time>2019-09-21T09:06:18.000Z</time>
      </trkpt>
      <trkpt lat="49.53851" lon="5.05697">
        <ele>189.186</ele>
        <time>2019-09-21T09:08:18.000Z</time>
      </trkpt>
      <trkpt lat="49.53826" lon="5.05781">
        <ele>196.352</ele>
        <time>2019-09-21T09:08:48.000Z</time>
      </trkpt>
      <trkpt lat="49.53883" lon="5.05986">
        <ele>190.18</ele>
        <time>2019-09-21T09:09:18.000Z</time>
      </trkpt>
      <trkpt lat="49.53971" lon="5.0618">
        <ele>178.181</ele>
        <time>2019-09-21T09:09:48.000Z</time>
      </trkpt>
      <trkpt lat="49.54047" lon="5.06329">
        <ele>173.733</ele>
        <time>2019-09-21T09:10:18.000Z</time>
      </trkpt>
      <trkpt lat="49.54109" lon="5.06461">
        <ele>174.93</ele>
        <time>2019-09-21T09:10:48.000Z</time>
      </trkpt>
      <trkpt lat="49.54172" lon="5.06622">
        <ele>172.567</ele>
        <time>2019-09-21T09:11:18.000Z</time>
      </trkpt>
      <trkpt lat="49.54233" lon="5.06775">
        <ele>172.95</ele>
        <time>2019-09-21T09:11:48.000Z</time>
      </trkpt>
      <trkpt lat="49.54293" lon="5.06931">
        <ele>171.816</ele>
        <time>2019-09-21T09:12:18.000Z</time>
      </trkpt>
      <trkpt lat="49.54375" lon="5.07146">
        <ele>168.985</ele>
        <time>2019-09-21T09:12:48.000Z</time>
      </trkpt>
      <trkpt lat="49.54403" lon="5.07294">
        <ele>169.828</ele>
        <time>2019-09-21T09:13:18.000Z</time>
      </trkpt>
      <trkpt lat="49.54433" lon="5.07496">
        <ele>169.023</ele>
        <time>2019-09-21T09:13:48.000Z</time>
      </trkpt>
      <trkpt lat="49.54432" lon="5.07654">
        <ele>169.028</ele>
        <time>2019-09-21T09:14:18.000Z</time>
      </trkpt>
      <trkpt lat="49.54457" lon="5.07797">
        <ele>170.713</ele>
        <time>2019-09-21T09:14:48.000Z</time>
      </trkpt>
      <trkpt lat="49.54498" lon="5.08009">
        <ele>171.23</ele>
        <time>2019-09-21T09:15:18.000Z</time>
      </trkpt>
      <trkpt lat="49.54476" lon="5.08229">
        <ele>177.184</ele>
        <time>2019-09-21T09:15:48.000Z</time>
      </trkpt>
      <trkpt lat="49.54375" lon="5.08269">
        <ele>171.841</ele>
        <time>2019-09-21T09:16:18.000Z</time>
      </trkpt>
      <trkpt lat="49.54291" lon="5.08312">
        <ele>172.924</ele>
        <time>2019-09-21T09:16:48.000Z</time>
      </trkpt>
      <trkpt lat="49.54249" lon="5.08369">
        <ele>177.41</ele>
        <time>2019-09-21T09:17:21.000Z</time>
      </trkpt>
      <trkpt lat="49.54188" lon="5.08406">
        <ele>180.536</ele>
        <time>2019-09-21T09:17:51.000Z</time>
      </trkpt>
      <trkpt lat="49.53993" lon="5.08547">
        <ele>178.307</ele>
        <time>2019-09-21T09:18:21.000Z</time>
      </trkpt>
      <trkpt lat="49.53839" lon="5.08648">
        <ele>167.833</ele>
        <time>2019-09-21T09:18:51.000Z</time>
      </trkpt>
      <trkpt lat="49.53706" lon="5.08735">
        <ele>167.712</ele>
        <time>2019-09-21T09:19:21.000Z</time>
      </trkpt>
      <trkpt lat="49.53624" lon="5.0879">
        <ele>166.271</ele>
        <time>2019-09-21T09:19:51.000Z</time>
      </trkpt>
      <trkpt lat="49.53497" lon="5.08883">
        <ele>165.055</ele>
        <time>2019-09-21T09:20:21.000Z</time>
      </trkpt>
      <trkpt lat="49.53368" lon="5.08972">
        <ele>167.615</ele>
        <time>2019-09-21T09:20:51.000Z</time>
      </trkpt>
      <trkpt lat="49.53264" lon="5.09075">
        <ele>168.927</ele>
        <time>2019-09-21T09:21:21.000Z</time>
      </trkpt>
      <trkpt lat="49.53146" lon="5.09173">
        <ele>170.198</ele>
        <time>2019-09-21T09:21:54.000Z</time>
      </trkpt>
      <trkpt lat="49.53066" lon="5.09208">
        <ele>174.767</ele>
        <time>2019-09-21T09:22:24.000Z</time>
      </trkpt>
      <trkpt lat="49.52991" lon="5.09255">
        <ele>180.075</ele>
        <time>2019-09-21T09:22:54.000Z</time>
      </trkpt>
      <trkpt lat="49.52881" lon="5.09268">
        <ele>178.201</ele>
        <time>2019-09-21T09:23:24.000Z</time>
      </trkpt>
      <trkpt lat="49.52731" lon="5.09116">
        <ele>171.921</ele>
        <time>2019-09-21T09:23:54.000Z</time>
      </trkpt>
      <trkpt lat="49.52576" lon="5.08924">
        <ele>168.939</ele>
        <time>2019-09-21T09:24:24.000Z</time>
      </trkpt>
      <trkpt lat="49.52417" lon="5.08869">
        <ele>161.45</ele>
        <time>2019-09-21T09:24:54.000Z</time>
      </trkpt>
      <trkpt lat="49.52309" lon="5.08805">
        <ele>167.063</ele>
        <time>2019-09-21T09:25:24.000Z</time>
      </trkpt>
      <trkpt lat="49.52188" lon="5.08759">
        <ele>168.738</ele>
        <time>2019-09-21T09:25:54.000Z</time>
      </trkpt>
      <trkpt lat="49.52105" lon="5.08929">
        <ele>170.569</ele>
        <time>2019-09-21T09:26:24.000Z</time>
      </trkpt>
      <trkpt lat="49.52022" lon="5.0903">
        <ele>172.258</ele>
        <time>2019-09-21T09:26:54.000Z</time>
      </trkpt>
      <trkpt lat="49.52039" lon="5.09054">
        <ele>173.919</ele>
        <time>2019-09-21T09:27:24.000Z</time>
      </trkpt>
      <trkpt lat="49.52133" lon="5.09086">
        <ele>173.142</ele>
        <time>2019-09-21T09:27:54.000Z</time>
      </trkpt>
      <trkpt lat="49.52189" lon="5.09133">
        <ele>178.815</ele>
        <time>2019-09-21T09:28:24.000Z</time>
      </trkpt>
      <trkpt lat="49.52234" lon="5.09187">
        <ele>179.934</ele>
        <time>2019-09-21T09:28:54.000Z</time>
      </trkpt>
      <trkpt lat="49.52282" lon="5.09236">
        <ele>185.199</ele>
        <time>2019-09-21T09:29:24.000Z</time>
      </trkpt>
      <trkpt lat="49.52335" lon="5.09302">
        <ele>188.547</ele>
        <time>2019-09-21T09:29:54.000Z</time>
      </trkpt>
      <trkpt lat="49.52469" lon="5.09506">
        <ele>180.654</ele>
        <time>2019-09-21T09:30:24.000Z</time>
      </trkpt>
      <trkpt lat="49.52611" lon="5.0976">
        <ele>168.081</ele>
        <time>2019-09-21T09:30:54.000Z</time>
      </trkpt>
      <trkpt lat="49.52648" lon="5.09908">
        <ele>170.975</ele>
        <time>2019-09-21T09:31:24.000Z</time>
      </trkpt>
      <trkpt lat="49.52683" lon="5.09982">
        <ele>182.326</ele>
        <time>2019-09-21T09:32:03.000Z</time>
      </trkpt>
      <trkpt lat="49.52722" lon="5.10066">
        <ele>189.997</ele>
        <time>2019-09-21T09:32:48.000Z</time>
      </trkpt>
      <trkpt lat="49.52754" lon="5.10133">
        <ele>192.562</ele>
        <time>2019-09-21T09:33:21.000Z</time>
      </trkpt>
      <trkpt lat="49.52786" lon="5.10202">
        <ele>196.984</ele>
        <time>2019-09-21T09:33:51.000Z</time>
      </trkpt>
      <trkpt lat="49.52843" lon="5.10296">
        <ele>195.35</ele>
        <time>2019-09-21T09:34:21.000Z</time>
      </trkpt>
      <trkpt lat="49.52955" lon="5.10536">
        <ele>196.571</ele>
        <time>2019-09-21T09:34:51.000Z</time>
      </trkpt>
      <trkpt lat="49.53101" lon="5.1091">
        <ele>186</ele>
        <time>2019-09-21T09:35:21.000Z</time>
      </trkpt>
      <trkpt lat="49.53186" lon="5.11118">
        <ele>180.582</ele>
        <time>2019-09-21T09:35:51.000Z</time>
      </trkpt>
      <trkpt lat="49.53247" lon="5.11272">
        <ele>181.165</ele>
        <time>2019-09-21T09:36:21.000Z</time>
      </trkpt>
      <trkpt lat="49.53288" lon="5.11396">
        <ele>191.82</ele>
        <time>2019-09-21T09:36:51.000Z</time>
      </trkpt>
      <trkpt lat="49.53328" lon="5.11515">
        <ele>197.641</ele>
        <time>2019-09-21T09:37:21.000Z</time>
      </trkpt>
      <trkpt lat="49.53372" lon="5.11629">
        <ele>197.736</ele>
        <time>2019-09-21T09:37:51.000Z</time>
      </trkpt>
      <trkpt lat="49.53428" lon="5.11752">
        <ele>197.948</ele>
        <time>2019-09-21T09:38:21.000Z</time>
      </trkpt>
      <trkpt lat="49.5348" lon="5.11877">
        <ele>200.544</ele>
        <time>2019-09-21T09:38:51.000Z</time>
      </trkpt>
      <trkpt lat="49.53648" lon="5.11935">
        <ele>189.86</ele>
        <time>2019-09-21T09:39:21.000Z</time>
      </trkpt>
      <trkpt lat="49.5367" lon="5.11971">
        <ele>173.413</ele>
        <time>2019-09-21T09:39:54.000Z</time>
      </trkpt>
      <trkpt lat="49.53705" lon="5.12068">
        <ele>174.459</ele>
        <time>2019-09-21T09:40:24.000Z</time>
      </trkpt>
      <trkpt lat="49.53749" lon="5.12172">
        <ele>176.032</ele>
        <time>2019-09-21T09:40:54.000Z</time>
      </trkpt>
      <trkpt lat="49.53799" lon="5.12285">
        <ele>178.055</ele>
        <time>2019-09-21T09:41:24.000Z</time>
      </trkpt>
      <trkpt lat="49.53838" lon="5.12405">
        <ele>181.265</ele>
        <time>2019-09-21T09:41:54.000Z</time>
      </trkpt>
      <trkpt lat="49.53865" lon="5.12514">
        <ele>184.974</ele>
        <time>2019-09-21T09:42:24.000Z</time>
      </trkpt>
      <trkpt lat="49.53885" lon="5.12605">
        <ele>190.7</ele>
        <time>2019-09-21T09:42:54.000Z</time>
      </trkpt>
      <trkpt lat="49.53903" lon="5.12686">
        <ele>192.939</ele>
        <time>2019-09-21T09:43:24.000Z</time>
      </trkpt>
      <trkpt lat="49.5392" lon="5.12766">
        <ele>194.792</ele>
        <time>2019-09-21T09:43:54.000Z</time>
      </trkpt>
      <trkpt lat="49.53937" lon="5.12848">
        <ele>196.237</ele>
        <time>2019-09-21T09:44:24.000Z</time>
      </trkpt>
      <trkpt lat="49.53956" lon="5.1293">
        <ele>200.256</ele>
        <time>2019-09-21T09:44:54.000Z</time>
      </trkpt>
      <trkpt lat="49.53974" lon="5.13009">
        <ele>206.328</ele>
        <time>2019-09-21T09:45:24.000Z</time>
      </trkpt>
      <trkpt lat="49.53989" lon="5.13092">
        <ele>215.722</ele>
        <time>2019-09-21T09:46:00.000Z</time>
      </trkpt>
      <trkpt lat="49.54011" lon="5.1318">
        <ele>226.516</ele>
        <time>2019-09-21T09:46:30.000Z</time>
      </trkpt>
      <trkpt lat="49.54042" lon="5.13292">
        <ele>228.564</ele>
        <time>2019-09-21T09:47:00.000Z</time>
      </trkpt>
      <trkpt lat="49.54041" lon="5.13424">
        <ele>230.766</ele>
        <time>2019-09-21T09:47:30.000Z</time>
      </trkpt>
      <trkpt lat="49.53998" lon="5.1354">
        <ele>228.177</ele>
        <time>2019-09-21T09:48:00.000Z</time>
      </trkpt>
      <trkpt lat="49.5393" lon="5.1362">
        <ele>230.999</ele>
        <time>2019-09-21T09:48:30.000Z</time>
      </trkpt>
      <trkpt lat="49.53887" lon="5.13746">
        <ele>232.583</ele>
        <time>2019-09-21T09:49:00.000Z</time>
      </trkpt>
      <trkpt lat="49.53949" lon="5.13891">
        <ele>222.756</ele>
        <time>2019-09-21T09:49:30.000Z</time>
      </trkpt>
      <trkpt lat="49.53976" lon="5.14068">
        <ele>228.056</ele>
        <time>2019-09-21T09:50:00.000Z</time>
      </trkpt>
      <trkpt lat="49.53949" lon="5.14237">
        <ele>236.004</ele>
        <time>2019-09-21T09:50:30.000Z</time>
      </trkpt>
      <trkpt lat="49.53879" lon="5.1442">
        <ele>232.575</ele>
        <time>2019-09-21T09:51:00.000Z</time>
      </trkpt>
      <trkpt lat="49.53778" lon="5.1456">
        <ele>231.831</ele>
        <time>2019-09-21T09:51:30.000Z</time>
      </trkpt>
      <trkpt lat="49.5371" lon="5.14999">
        <ele>206.832</ele>
        <time>2019-09-21T09:52:03.000Z</time>
      </trkpt>
      <trkpt lat="49.53623" lon="5.15275">
        <ele>181.76</ele>
        <time>2019-09-21T09:52:33.000Z</time>
      </trkpt>
      <trkpt lat="49.53513" lon="5.15513">
        <ele>175.583</ele>
        <time>2019-09-21T09:53:03.000Z</time>
      </trkpt>
      <trkpt lat="49.53387" lon="5.15692">
        <ele>170.883</ele>
        <time>2019-09-21T09:53:33.000Z</time>
      </trkpt>
      <trkpt lat="49.53292" lon="5.15749">
        <ele>172.323</ele>
        <time>2019-09-21T09:54:03.000Z</time>
      </trkpt>
      <trkpt lat="49.53185" lon="5.15747">
        <ele>173.505</ele>
        <time>2019-09-21T09:54:33.000Z</time>
      </trkpt>
      <trkpt lat="49.5305" lon="5.15771">
        <ele>172.661</ele>
        <time>2019-09-21T09:55:03.000Z</time>
      </trkpt>
      <trkpt lat="49.52876" lon="5.1582">
        <ele>163.007</ele>
        <time>2019-09-21T09:55:33.000Z</time>
      </trkpt>
      <trkpt lat="49.52719" lon="5.15811">
        <ele>162.781</ele>
        <time>2019-09-21T09:56:03.000Z</time>
      </trkpt>
      <trkpt lat="49.52586" lon="5.15758">
        <ele>162.865</ele>
        <time>2019-09-21T09:56:33.000Z</time>
      </trkpt>
      <trkpt lat="49.52527" lon="5.15664">
        <ele>168.405</ele>
        <time>2019-09-21T09:57:03.000Z</time>
      </trkpt>
      <trkpt lat="49.52471" lon="5.15613">
        <ele>176.03</ele>
        <time>2019-09-21T09:57:33.000Z</time>
      </trkpt>
      <trkpt lat="49.52343" lon="5.15644">
        <ele>182.816</ele>
        <time>2019-09-21T09:58:03.000Z</time>
      </trkpt>
      <trkpt lat="49.52242" lon="5.15646">
        <ele>182.883</ele>
        <time>2019-09-21T09:58:33.000Z</time>
      </trkpt>
      <trkpt lat="49.52137" lon="5.15631">
        <ele>180.133</ele>
        <time>2019-09-21T09:59:03.000Z</time>
      </trkpt>
      <trkpt lat="49.51988" lon="5.15586">
        <ele>171.951</ele>
        <time>2019-09-21T09:59:33.000Z</time>
      </trkpt>
      <trkpt lat="49.51839" lon="5.15548">
        <ele>165.975</ele>
        <time>2019-09-21T10:00:03.000Z</time>
      </trkpt>
      <trkpt lat="49.51711" lon="5.15579">
        <ele>166.54</ele>
        <time>2019-09-21T10:00:33.000Z</time>
      </trkpt>
      <trkpt lat="49.51563" lon="5.15635">
        <ele>165.659</ele>
        <time>2019-09-21T10:01:03.000Z</time>
      </trkpt>
      <trkpt lat="49.51431" lon="5.15764">
        <ele>167.47</ele>
        <time>2019-09-21T10:01:33.000Z</time>
      </trkpt>
      <trkpt lat="49.51396" lon="5.15934">
        <ele>172.049</ele>
        <time>2019-09-21T10:02:03.000Z</time>
      </trkpt>
      <trkpt lat="49.51288" lon="5.15949">
        <ele>170.399</ele>
        <time>2019-09-21T10:02:33.000Z</time>
      </trkpt>
      <trkpt lat="49.51254" lon="5.15831">
        <ele>176.841</ele>
        <time>2019-09-21T10:03:03.000Z</time>
      </trkpt>
      <trkpt lat="49.51137" lon="5.15872">
        <ele>180.57</ele>
        <time>2019-09-21T10:03:33.000Z</time>
      </trkpt>
      <trkpt lat="49.5101" lon="5.15966">
        <ele>178.082</ele>
        <time>2019-09-21T10:04:03.000Z</time>
      </trkpt>
      <trkpt lat="49.50906" lon="5.15867">
        <ele>170.729</ele>
        <time>2019-09-21T10:04:33.000Z</time>
      </trkpt>
      <trkpt lat="49.50813" lon="5.15811">
        <ele>171.104</ele>
        <time>2019-09-21T10:05:03.000Z</time>
      </trkpt>
      <trkpt lat="49.50721" lon="5.15793">
        <ele>170.062</ele>
        <time>2019-09-21T10:05:33.000Z</time>
      </trkpt>
      <trkpt lat="49.50617" lon="5.15779">
        <ele>169.806</ele>
        <time>2019-09-21T10:06:03.000Z</time>
      </trkpt>
      <trkpt lat="49.50504" lon="5.15773">
        <ele>170.034</ele>
        <time>2019-09-21T10:06:33.000Z</time>
      </trkpt>
      <trkpt lat="49.50384" lon="5.15675">
        <ele>171.313</ele>
        <time>2019-09-21T10:07:03.000Z</time>
      </trkpt>
      <trkpt lat="49.50265" lon="5.15613">
        <ele>170.734</ele>
        <time>2019-09-21T10:07:33.000Z</time>
      </trkpt>
      <trkpt lat="49.50169" lon="5.15647">
        <ele>169.494</ele>
        <time>2019-09-21T10:08:03.000Z</time>
      </trkpt>
      <trkpt lat="49.50069" lon="5.15693">
        <ele>169.287</ele>
        <time>2019-09-21T10:08:33.000Z</time>
      </trkpt>
      <trkpt lat="49.49959" lon="5.15732">
        <ele>168.816</ele>
        <time>2019-09-21T10:09:03.000Z</time>
      </trkpt>
      <trkpt lat="49.49853" lon="5.15779">
        <ele>170.556</ele>
        <time>2019-09-21T10:09:33.000Z</time>
      </trkpt>
      <trkpt lat="49.49751" lon="5.15831">
        <ele>170.608</ele>
        <time>2019-09-21T10:10:03.000Z</time>
      </trkpt>
      <trkpt lat="49.49638" lon="5.15888">
        <ele>172.079</ele>
        <time>2019-09-21T10:10:33.000Z</time>
      </trkpt>
      <trkpt lat="49.49547" lon="5.16016">
        <ele>170.741</ele>
        <time>2019-09-21T10:11:03.000Z</time>
      </trkpt>
      <trkpt lat="49.49432" lon="5.16059">
        <ele>169.835</ele>
        <time>2019-09-21T10:11:33.000Z</time>
      </trkpt>
      <trkpt lat="49.49307" lon="5.16139">
        <ele>173.639</ele>
        <time>2019-09-21T10:12:03.000Z</time>
      </trkpt>
      <trkpt lat="49.49175" lon="5.16245">
        <ele>181.245</ele>
        <time>2019-09-21T10:12:33.000Z</time>
      </trkpt>
      <trkpt lat="49.49082" lon="5.16315">
        <ele>181.696</ele>
        <time>2019-09-21T10:13:03.000Z</time>
      </trkpt>
      <trkpt lat="49.49" lon="5.16152">
        <ele>181.329</ele>
        <time>2019-09-21T10:13:33.000Z</time>
      </trkpt>
      <trkpt lat="49.48876" lon="5.16166">
        <ele>178.366</ele>
        <time>2019-09-21T10:14:03.000Z</time>
      </trkpt>
      <trkpt lat="49.48745" lon="5.16209">
        <ele>173.083</ele>
        <time>2019-09-21T10:14:33.000Z</time>
      </trkpt>
      <trkpt lat="49.48622" lon="5.1625">
        <ele>172.635</ele>
        <time>2019-09-21T10:15:03.000Z</time>
      </trkpt>
      <trkpt lat="49.4854" lon="5.16273">
        <ele>176.071</ele>
        <time>2019-09-21T10:21:03.000Z</time>
      </trkpt>
      <trkpt lat="49.48652" lon="5.16245">
        <ele>167.574</ele>
        <time>2019-09-21T10:21:39.000Z</time>
      </trkpt>
      <trkpt lat="49.48811" lon="5.1618">
        <ele>164.421</ele>
        <time>2019-09-21T10:22:09.000Z</time>
      </trkpt>
      <trkpt lat="49.4896" lon="5.16132">
        <ele>166.784</ele>
        <time>2019-09-21T10:22:39.000Z</time>
      </trkpt>
      <trkpt lat="49.49021" lon="5.16246">
        <ele>170.442</ele>
        <time>2019-09-21T10:23:09.000Z</time>
      </trkpt>
      <trkpt lat="49.4913" lon="5.16399">
        <ele>171.819</ele>
        <time>2019-09-21T10:23:39.000Z</time>
      </trkpt>
      <trkpt lat="49.49254" lon="5.16543">
        <ele>170.864</ele>
        <time>2019-09-21T10:24:09.000Z</time>
      </trkpt>
      <trkpt lat="49.49322" lon="5.16728">
        <ele>164</ele>
        <time>2019-09-21T10:24:39.000Z</time>
      </trkpt>
      <trkpt lat="49.49305" lon="5.16895">
        <ele>164.532</ele>
        <time>2019-09-21T10:25:09.000Z</time>
      </trkpt>
      <trkpt lat="49.4927" lon="5.17002">
        <ele>168.158</ele>
        <time>2019-09-21T10:25:39.000Z</time>
      </trkpt>
      <trkpt lat="49.49244" lon="5.17125">
        <ele>167.944</ele>
        <time>2019-09-21T10:26:09.000Z</time>
      </trkpt>
      <trkpt lat="49.49187" lon="5.17359">
        <ele>166.083</ele>
        <time>2019-09-21T10:26:39.000Z</time>
      </trkpt>
      <trkpt lat="49.49086" lon="5.17591">
        <ele>160.464</ele>
        <time>2019-09-21T10:27:12.000Z</time>
      </trkpt>
      <trkpt lat="49.49005" lon="5.17765">
        <ele>160.694</ele>
        <time>2019-09-21T10:27:42.000Z</time>
      </trkpt>
      <trkpt lat="49.48932" lon="5.17924">
        <ele>165.119</ele>
        <time>2019-09-21T10:28:12.000Z</time>
      </trkpt>
      <trkpt lat="49.48895" lon="5.18084">
        <ele>170.368</ele>
        <time>2019-09-21T10:28:42.000Z</time>
      </trkpt>
      <trkpt lat="49.48907" lon="5.18258">
        <ele>171.861</ele>
        <time>2019-09-21T10:29:12.000Z</time>
      </trkpt>
      <trkpt lat="49.49027" lon="5.18413">
        <ele>169.229</ele>
        <time>2019-09-21T10:29:42.000Z</time>
      </trkpt>
      <trkpt lat="49.4913" lon="5.1854">
        <ele>170.904</ele>
        <time>2019-09-21T10:30:12.000Z</time>
      </trkpt>
      <trkpt lat="49.49275" lon="5.18518">
        <ele>171.3</ele>
        <time>2019-09-21T10:30:42.000Z</time>
      </trkpt>
      <trkpt lat="49.49416" lon="5.18538">
        <ele>169.699</ele>
        <time>2019-09-21T10:31:12.000Z</time>
      </trkpt>
      <trkpt lat="49.49492" lon="5.18631">
        <ele>177.012</ele>
        <time>2019-09-21T10:31:42.000Z</time>
      </trkpt>
      <trkpt lat="49.49501" lon="5.18694">
        <ele>174.761</ele>
        <time>2019-09-21T10:32:12.000Z</time>
      </trkpt>
      <trkpt lat="49.49466" lon="5.18704">
        <ele>174.381</ele>
        <time>2019-09-21T10:34:27.000Z</time>
      </trkpt>
      <trkpt lat="49.49417" lon="5.18704">
        <ele>180.037</ele>
        <time>2019-09-21T10:36:36.000Z</time>
      </trkpt>
      <trkpt lat="49.49324" lon="5.18706">
        <ele>183.428</ele>
        <time>2019-09-21T10:37:09.000Z</time>
      </trkpt>
      <trkpt lat="49.49228" lon="5.18743">
        <ele>185.476</ele>
        <time>2019-09-21T10:37:39.000Z</time>
      </trkpt>
      <trkpt lat="49.49189" lon="5.18819">
        <ele>182.666</ele>
        <time>2019-09-21T10:38:12.000Z</time>
      </trkpt>
      <trkpt lat="49.49206" lon="5.18935">
        <ele>186.395</ele>
        <time>2019-09-21T10:38:42.000Z</time>
      </trkpt>
      <trkpt lat="49.49211" lon="5.19042">
        <ele>189.197</ele>
        <time>2019-09-21T10:39:12.000Z</time>
      </trkpt>
      <trkpt lat="49.49218" lon="5.19151">
        <ele>191.652</ele>
        <time>2019-09-21T10:39:42.000Z</time>
      </trkpt>
      <trkpt lat="49.49222" lon="5.19203">
        <ele>193.682</ele>
        <time>2019-09-21T10:43:03.000Z</time>
      </trkpt>
      <trkpt lat="49.49188" lon="5.19275">
        <ele>188.991</ele>
        <time>2019-09-21T10:44:00.000Z</time>
      </trkpt>
      <trkpt lat="49.49092" lon="5.19344">
        <ele>187.647</ele>
        <time>2019-09-21T10:44:30.000Z</time>
      </trkpt>
      <trkpt lat="49.48993" lon="5.19405">
        <ele>187.29</ele>
        <time>2019-09-21T10:45:00.000Z</time>
      </trkpt>
      <trkpt lat="49.48886" lon="5.19474">
        <ele>186.814</ele>
        <time>2019-09-21T10:45:30.000Z</time>
      </trkpt>
      <trkpt lat="49.48813" lon="5.19529">
        <ele>190.011</ele>
        <time>2019-09-21T10:46:00.000Z</time>
      </trkpt>
      <trkpt lat="49.48752" lon="5.19575">
        <ele>192.803</ele>
        <time>2019-09-21T10:46:30.000Z</time>
      </trkpt>
      <trkpt lat="49.48678" lon="5.19631">
        <ele>197.288</ele>
        <time>2019-09-21T10:47:00.000Z</time>
      </trkpt>
      <trkpt lat="49.48538" lon="5.19735">
        <ele>193.718</ele>
        <time>2019-09-21T10:47:30.000Z</time>
      </trkpt>
      <trkpt lat="49.48414" lon="5.19829">
        <ele>192.487</ele>
        <time>2019-09-21T10:48:00.000Z</time>
      </trkpt>
      <trkpt lat="49.4827" lon="5.19933">
        <ele>187.955</ele>
        <time>2019-09-21T10:48:30.000Z</time>
      </trkpt>
      <trkpt lat="49.4825" lon="5.20047">
        <ele>189.376</ele>
        <time>2019-09-21T10:49:00.000Z</time>
      </trkpt>
      <trkpt lat="49.48328" lon="5.20117">
        <ele>193.345</ele>
        <time>2019-09-21T10:49:30.000Z</time>
      </trkpt>
      <trkpt lat="49.48366" lon="5.20239">
        <ele>197.628</ele>
        <time>2019-09-21T10:50:00.000Z</time>
      </trkpt>
      <trkpt lat="49.4841" lon="5.20258">
        <ele>196.858</ele>
        <time>2019-09-21T11:19:00.000Z</time>
      </trkpt>
      <trkpt lat="49.4841" lon="5.20259">
        <ele>196.866</ele>
        <time>2019-09-21T11:25:27.000Z</time>
      </trkpt>
      <trkpt lat="49.48413" lon="5.20257">
        <ele>196.027</ele>
        <time>2019-09-21T11:26:24.000Z</time>
      </trkpt>
      <trkpt lat="49.48397" lon="5.20286">
        <ele>200.16</ele>
        <time>2019-09-21T11:41:09.000Z</time>
      </trkpt>
      <trkpt lat="49.4841" lon="5.20259">
        <ele>199.115</ele>
        <time>2019-09-21T11:42:39.000Z</time>
      </trkpt>
      <trkpt lat="49.48411" lon="5.20252">
        <ele>200.409</ele>
        <time>2019-09-21T11:47:27.000Z</time>
      </trkpt>
      <trkpt lat="49.48414" lon="5.20255">
        <ele>200.162</ele>
        <time>2019-09-21T12:03:54.000Z</time>
      </trkpt>
      <trkpt lat="49.48413" lon="5.20255">
        <ele>200.129</ele>
        <time>2019-09-21T12:10:33.000Z</time>
      </trkpt>
      <trkpt lat="49.48389" lon="5.20293">
        <ele>201.041</ele>
        <time>2019-09-21T12:11:06.000Z</time>
      </trkpt>
      <trkpt lat="49.48339" lon="5.20131">
        <ele>200.499</ele>
        <time>2019-09-21T12:11:36.000Z</time>
      </trkpt>
      <trkpt lat="49.48257" lon="5.20054">
        <ele>193.106</ele>
        <time>2019-09-21T12:12:06.000Z</time>
      </trkpt>
      <trkpt lat="49.4817" lon="5.20005">
        <ele>186.999</ele>
        <time>2019-09-21T12:12:36.000Z</time>
      </trkpt>
      <trkpt lat="49.4801" lon="5.20124">
        <ele>182.335</ele>
        <time>2019-09-21T12:13:06.000Z</time>
      </trkpt>
      <trkpt lat="49.47834" lon="5.20257">
        <ele>177.088</ele>
        <time>2019-09-21T12:13:36.000Z</time>
      </trkpt>
      <trkpt lat="49.47671" lon="5.20384">
        <ele>172.068</ele>
        <time>2019-09-21T12:14:06.000Z</time>
      </trkpt>
      <trkpt lat="49.47567" lon="5.20457">
        <ele>173.231</ele>
        <time>2019-09-21T12:14:36.000Z</time>
      </trkpt>
      <trkpt lat="49.47467" lon="5.20535">
        <ele>175.365</ele>
        <time>2019-09-21T12:15:06.000Z</time>
      </trkpt>
      <trkpt lat="49.47358" lon="5.20623">
        <ele>175.427</ele>
        <time>2019-09-21T12:15:36.000Z</time>
      </trkpt>
      <trkpt lat="49.47245" lon="5.20711">
        <ele>173.561</ele>
        <time>2019-09-21T12:16:06.000Z</time>
      </trkpt>
      <trkpt lat="49.47151" lon="5.20781">
        <ele>175.276</ele>
        <time>2019-09-21T12:16:36.000Z</time>
      </trkpt>
      <trkpt lat="49.47052" lon="5.20853">
        <ele>175.149</ele>
        <time>2019-09-21T12:17:06.000Z</time>
      </trkpt>
      <trkpt lat="49.46907" lon="5.20955">
        <ele>170.852</ele>
        <time>2019-09-21T12:17:36.000Z</time>
      </trkpt>
      <trkpt lat="49.46801" lon="5.21031">
        <ele>171.013</ele>
        <time>2019-09-21T12:18:06.000Z</time>
      </trkpt>
      <trkpt lat="49.46686" lon="5.21114">
        <ele>176.876</ele>
        <time>2019-09-21T12:18:36.000Z</time>
      </trkpt>
      <trkpt lat="49.46563" lon="5.21197">
        <ele>177.724</ele>
        <time>2019-09-21T12:19:06.000Z</time>
      </trkpt>
      <trkpt lat="49.46461" lon="5.21329">
        <ele>180.963</ele>
        <time>2019-09-21T12:19:36.000Z</time>
      </trkpt>
      <trkpt lat="49.46315" lon="5.21527">
        <ele>176.129</ele>
        <time>2019-09-21T12:20:09.000Z</time>
      </trkpt>
      <trkpt lat="49.46181" lon="5.21637">
        <ele>170.828</ele>
        <time>2019-09-21T12:20:39.000Z</time>
      </trkpt>
      <trkpt lat="49.46045" lon="5.21635">
        <ele>163.479</ele>
        <time>2019-09-21T12:21:09.000Z</time>
      </trkpt>
      <trkpt lat="49.45905" lon="5.21564">
        <ele>161.969</ele>
        <time>2019-09-21T12:21:39.000Z</time>
      </trkpt>
      <trkpt lat="49.45778" lon="5.21501">
        <ele>165.447</ele>
        <time>2019-09-21T12:22:09.000Z</time>
      </trkpt>
      <trkpt lat="49.45655" lon="5.21438">
        <ele>164.768</ele>
        <time>2019-09-21T12:22:39.000Z</time>
      </trkpt>
      <trkpt lat="49.45518" lon="5.21371">
        <ele>163.716</ele>
        <time>2019-09-21T12:23:09.000Z</time>
      </trkpt>
      <trkpt lat="49.45382" lon="5.21304">
        <ele>164.155</ele>
        <time>2019-09-21T12:23:39.000Z</time>
      </trkpt>
      <trkpt lat="49.45236" lon="5.21238">
        <ele>163.226</ele>
        <time>2019-09-21T12:24:09.000Z</time>
      </trkpt>
      <trkpt lat="49.45103" lon="5.21181">
        <ele>165.399</ele>
        <time>2019-09-21T12:24:39.000Z</time>
      </trkpt>
      <trkpt lat="49.44976" lon="5.21128">
        <ele>165.72</ele>
        <time>2019-09-21T12:25:09.000Z</time>
      </trkpt>
      <trkpt lat="49.44852" lon="5.21075">
        <ele>164.788</ele>
        <time>2019-09-21T12:25:39.000Z</time>
      </trkpt>
      <trkpt lat="49.44726" lon="5.21016">
        <ele>165.595</ele>
        <time>2019-09-21T12:26:09.000Z</time>
      </trkpt>
      <trkpt lat="49.44596" lon="5.2096">
        <ele>165.62</ele>
        <time>2019-09-21T12:26:39.000Z</time>
      </trkpt>
      <trkpt lat="49.44469" lon="5.20903">
        <ele>164.538</ele>
        <time>2019-09-21T12:27:09.000Z</time>
      </trkpt>
      <trkpt lat="49.44347" lon="5.20849">
        <ele>166.082</ele>
        <time>2019-09-21T12:27:39.000Z</time>
      </trkpt>
      <trkpt lat="49.44218" lon="5.20792">
        <ele>165.517</ele>
        <time>2019-09-21T12:28:09.000Z</time>
      </trkpt>
      <trkpt lat="49.44098" lon="5.20739">
        <ele>167.661</ele>
        <time>2019-09-21T12:28:39.000Z</time>
      </trkpt>
      <trkpt lat="49.43979" lon="5.20684">
        <ele>168.781</ele>
        <time>2019-09-21T12:29:09.000Z</time>
      </trkpt>
      <trkpt lat="49.43856" lon="5.20623">
        <ele>169.661</ele>
        <time>2019-09-21T12:29:39.000Z</time>
      </trkpt>
      <trkpt lat="49.43725" lon="5.2056">
        <ele>168.211</ele>
        <time>2019-09-21T12:30:09.000Z</time>
      </trkpt>
      <trkpt lat="49.436" lon="5.20498">
        <ele>167.506</ele>
        <time>2019-09-21T12:30:39.000Z</time>
      </trkpt>
      <trkpt lat="49.43485" lon="5.20439">
        <ele>167.328</ele>
        <time>2019-09-21T12:31:09.000Z</time>
      </trkpt>
      <trkpt lat="49.43355" lon="5.20378">
        <ele>167.72</ele>
        <time>2019-09-21T12:31:39.000Z</time>
      </trkpt>
      <trkpt lat="49.43232" lon="5.20316">
        <ele>168.46</ele>
        <time>2019-09-21T12:32:09.000Z</time>
      </trkpt>
      <trkpt lat="49.43103" lon="5.20275">
        <ele>169.626</ele>
        <time>2019-09-21T12:32:39.000Z</time>
      </trkpt>
      <trkpt lat="49.42977" lon="5.2025">
        <ele>168.15</ele>
        <time>2019-09-21T12:33:09.000Z</time>
      </trkpt>
      <trkpt lat="49.42849" lon="5.20225">
        <ele>168.029</ele>
        <time>2019-09-21T12:33:39.000Z</time>
      </trkpt>
      <trkpt lat="49.42717" lon="5.202">
        <ele>168.642</ele>
        <time>2019-09-21T12:34:09.000Z</time>
      </trkpt>
      <trkpt lat="49.42586" lon="5.2018">
        <ele>171.517</ele>
        <time>2019-09-21T12:34:39.000Z</time>
      </trkpt>
      <trkpt lat="49.42452" lon="5.20174">
        <ele>170.388</ele>
        <time>2019-09-21T12:35:09.000Z</time>
      </trkpt>
      <trkpt lat="49.42317" lon="5.20166">
        <ele>170.598</ele>
        <time>2019-09-21T12:35:39.000Z</time>
      </trkpt>
      <trkpt lat="49.42184" lon="5.20158">
        <ele>170.71</ele>
        <time>2019-09-21T12:36:09.000Z</time>
      </trkpt>
      <trkpt lat="49.42053" lon="5.2015">
        <ele>169.515</ele>
        <time>2019-09-21T12:36:39.000Z</time>
      </trkpt>
      <trkpt lat="49.4192" lon="5.20141">
        <ele>169.716</ele>
        <time>2019-09-21T12:37:09.000Z</time>
      </trkpt>
      <trkpt lat="49.41782" lon="5.20133">
        <ele>169.88</ele>
        <time>2019-09-21T12:37:39.000Z</time>
      </trkpt>
      <trkpt lat="49.41649" lon="5.20096">
        <ele>169.327</ele>
        <time>2019-09-21T12:38:09.000Z</time>
      </trkpt>
      <trkpt lat="49.41527" lon="5.2005">
        <ele>169.051</ele>
        <time>2019-09-21T12:38:39.000Z</time>
      </trkpt>
      <trkpt lat="49.41403" lon="5.20003">
        <ele>168.322</ele>
        <time>2019-09-21T12:39:09.000Z</time>
      </trkpt>
      <trkpt lat="49.4128" lon="5.19953">
        <ele>168.244</ele>
        <time>2019-09-21T12:39:39.000Z</time>
      </trkpt>
      <trkpt lat="49.41154" lon="5.19904">
        <ele>170.684</ele>
        <time>2019-09-21T12:40:09.000Z</time>
      </trkpt>
      <trkpt lat="49.41039" lon="5.19859">
        <ele>171.156</ele>
        <time>2019-09-21T12:40:39.000Z</time>
      </trkpt>
      <trkpt lat="49.41023" lon="5.19743">
        <ele>170.413</ele>
        <time>2019-09-21T12:41:09.000Z</time>
      </trkpt>
      <trkpt lat="49.41152" lon="5.19564">
        <ele>167.52</ele>
        <time>2019-09-21T12:41:39.000Z</time>
      </trkpt>
      <trkpt lat="49.4126" lon="5.19413">
        <ele>168.198</ele>
        <time>2019-09-21T12:42:09.000Z</time>
      </trkpt>
      <trkpt lat="49.41332" lon="5.19265">
        <ele>170.063</ele>
        <time>2019-09-21T12:42:39.000Z</time>
      </trkpt>
      <trkpt lat="49.41342" lon="5.19111">
        <ele>175.249</ele>
        <time>2019-09-21T12:43:09.000Z</time>
      </trkpt>
      <trkpt lat="49.41308" lon="5.18968">
        <ele>172.882</ele>
        <time>2019-09-21T12:43:39.000Z</time>
      </trkpt>
      <trkpt lat="49.41176" lon="5.19052">
        <ele>173.528</ele>
        <time>2019-09-21T12:44:09.000Z</time>
      </trkpt>
      <trkpt lat="49.41085" lon="5.19072">
        <ele>177.143</ele>
        <time>2019-09-21T12:44:39.000Z</time>
      </trkpt>
      <trkpt lat="49.4102" lon="5.19088">
        <ele>179.651</ele>
        <time>2019-09-21T12:45:09.000Z</time>
      </trkpt>
      <trkpt lat="49.40928" lon="5.19099">
        <ele>179.932</ele>
        <time>2019-09-21T12:45:39.000Z</time>
      </trkpt>
      <trkpt lat="49.40782" lon="5.19071">
        <ele>175.147</ele>
        <time>2019-09-21T12:46:09.000Z</time>
      </trkpt>
      <trkpt lat="49.4065" lon="5.18968">
        <ele>175.055</ele>
        <time>2019-09-21T12:46:39.000Z</time>
      </trkpt>
      <trkpt lat="49.40528" lon="5.18895">
        <ele>177.351</ele>
        <time>2019-09-21T12:47:09.000Z</time>
      </trkpt>
      <trkpt lat="49.40388" lon="5.18793">
        <ele>173.176</ele>
        <time>2019-09-21T12:47:39.000Z</time>
      </trkpt>
      <trkpt lat="49.40248" lon="5.18679">
        <ele>169.975</ele>
        <time>2019-09-21T12:48:09.000Z</time>
      </trkpt>
      <trkpt lat="49.40148" lon="5.1852">
        <ele>170.653</ele>
        <time>2019-09-21T12:48:39.000Z</time>
      </trkpt>
      <trkpt lat="49.40065" lon="5.18359">
        <ele>171.691</ele>
        <time>2019-09-21T12:49:09.000Z</time>
      </trkpt>
      <trkpt lat="49.39976" lon="5.1819">
        <ele>173.568</ele>
        <time>2019-09-21T12:49:42.000Z</time>
      </trkpt>
      <trkpt lat="49.39897" lon="5.18037">
        <ele>177.274</ele>
        <time>2019-09-21T12:50:12.000Z</time>
      </trkpt>
      <trkpt lat="49.3982" lon="5.17888">
        <ele>178.516</ele>
        <time>2019-09-21T12:50:42.000Z</time>
      </trkpt>
      <trkpt lat="49.39742" lon="5.1773">
        <ele>177.762</ele>
        <time>2019-09-21T12:51:12.000Z</time>
      </trkpt>
      <trkpt lat="49.39687" lon="5.17614">
        <ele>181.145</ele>
        <time>2019-09-21T12:51:42.000Z</time>
      </trkpt>
      <trkpt lat="49.39631" lon="5.17504">
        <ele>185.168</ele>
        <time>2019-09-21T12:52:12.000Z</time>
      </trkpt>
      <trkpt lat="49.39566" lon="5.17373">
        <ele>187.493</ele>
        <time>2019-09-21T12:52:42.000Z</time>
      </trkpt>
      <trkpt lat="49.39464" lon="5.17217">
        <ele>180.032</ele>
        <time>2019-09-21T12:53:12.000Z</time>
      </trkpt>
      <trkpt lat="49.39353" lon="5.17054">
        <ele>178.378</ele>
        <time>2019-09-21T12:53:42.000Z</time>
      </trkpt>
      <trkpt lat="49.39307" lon="5.16837">
        <ele>177.129</ele>
        <time>2019-09-21T12:54:12.000Z</time>
      </trkpt>
      <trkpt lat="49.39196" lon="5.16684">
        <ele>174.98</ele>
        <time>2019-09-21T12:54:42.000Z</time>
      </trkpt>
      <trkpt lat="49.39022" lon="5.16672">
        <ele>173.883</ele>
        <time>2019-09-21T12:55:12.000Z</time>
      </trkpt>
      <trkpt lat="49.38906" lon="5.16676">
        <ele>175.1</ele>
        <time>2019-09-21T12:55:42.000Z</time>
      </trkpt>
      <trkpt lat="49.38829" lon="5.16691">
        <ele>178.587</ele>
        <time>2019-09-21T12:56:12.000Z</time>
      </trkpt>
      <trkpt lat="49.38685" lon="5.16709">
        <ele>174.102</ele>
        <time>2019-09-21T12:56:42.000Z</time>
      </trkpt>
      <trkpt lat="49.38527" lon="5.1669">
        <ele>171.573</ele>
        <time>2019-09-21T12:57:12.000Z</time>
      </trkpt>
      <trkpt lat="49.38411" lon="5.1671">
        <ele>171.473</ele>
        <time>2019-09-21T12:57:42.000Z</time>
      </trkpt>
      <trkpt lat="49.38316" lon="5.16761">
        <ele>173.705</ele>
        <time>2019-09-21T12:58:12.000Z</time>
      </trkpt>
      <trkpt lat="49.38241" lon="5.16824">
        <ele>179.056</ele>
        <time>2019-09-21T12:58:42.000Z</time>
      </trkpt>
      <trkpt lat="49.38151" lon="5.16895">
        <ele>183.116</ele>
        <time>2019-09-21T12:59:12.000Z</time>
      </trkpt>
      <trkpt lat="49.3806" lon="5.16892">
        <ele>180.799</ele>
        <time>2019-09-21T12:59:42.000Z</time>
      </trkpt>
      <trkpt lat="49.37955" lon="5.16973">
        <ele>183.035</ele>
        <time>2019-09-21T13:00:12.000Z</time>
      </trkpt>
      <trkpt lat="49.37844" lon="5.17073">
        <ele>179.687</ele>
        <time>2019-09-21T13:00:42.000Z</time>
      </trkpt>
      <trkpt lat="49.37777" lon="5.1714">
        <ele>182.623</ele>
        <time>2019-09-21T13:01:12.000Z</time>
      </trkpt>
      <trkpt lat="49.37693" lon="5.17214">
        <ele>184.546</ele>
        <time>2019-09-21T13:01:42.000Z</time>
      </trkpt>
      <trkpt lat="49.37579" lon="5.17381">
        <ele>178.818</ele>
        <time>2019-09-21T13:02:12.000Z</time>
      </trkpt>
      <trkpt lat="49.37494" lon="5.17584">
        <ele>173.732</ele>
        <time>2019-09-21T13:02:42.000Z</time>
      </trkpt>
      <trkpt lat="49.37381" lon="5.1771">
        <ele>171.303</ele>
        <time>2019-09-21T13:03:12.000Z</time>
      </trkpt>
      <trkpt lat="49.37251" lon="5.17769">
        <ele>172.96</ele>
        <time>2019-09-21T13:03:42.000Z</time>
      </trkpt>
      <trkpt lat="49.37133" lon="5.17824">
        <ele>173.762</ele>
        <time>2019-09-21T13:04:12.000Z</time>
      </trkpt>
      <trkpt lat="49.37016" lon="5.17875">
        <ele>172.282</ele>
        <time>2019-09-21T13:04:42.000Z</time>
      </trkpt>
      <trkpt lat="49.36897" lon="5.17904">
        <ele>176.688</ele>
        <time>2019-09-21T13:05:12.000Z</time>
      </trkpt>
      <trkpt lat="49.36776" lon="5.17929">
        <ele>179.942</ele>
        <time>2019-09-21T13:05:42.000Z</time>
      </trkpt>
      <trkpt lat="49.36691" lon="5.17936">
        <ele>183.9</ele>
        <time>2019-09-21T13:06:12.000Z</time>
      </trkpt>
      <trkpt lat="49.36642" lon="5.17979">
        <ele>190.457</ele>
        <time>2019-09-21T13:06:45.000Z</time>
      </trkpt>
      <trkpt lat="49.36594" lon="5.18031">
        <ele>194.74</ele>
        <time>2019-09-21T13:07:21.000Z</time>
      </trkpt>
      <trkpt lat="49.36546" lon="5.18079">
        <ele>197.054</ele>
        <time>2019-09-21T13:07:57.000Z</time>
      </trkpt>
      <trkpt lat="49.36495" lon="5.18118">
        <ele>201.863</ele>
        <time>2019-09-21T13:08:30.000Z</time>
      </trkpt>
      <trkpt lat="49.3644" lon="5.18139">
        <ele>201.762</ele>
        <time>2019-09-21T13:09:00.000Z</time>
      </trkpt>
      <trkpt lat="49.36373" lon="5.18148">
        <ele>201.855</ele>
        <time>2019-09-21T13:09:30.000Z</time>
      </trkpt>
      <trkpt lat="49.36258" lon="5.18142">
        <ele>200.513</ele>
        <time>2019-09-21T13:10:00.000Z</time>
      </trkpt>
      <trkpt lat="49.36057" lon="5.18127">
        <ele>193.217</ele>
        <time>2019-09-21T13:10:30.000Z</time>
      </trkpt>
      <trkpt lat="49.35853" lon="5.17909">
        <ele>184.347</ele>
        <time>2019-09-21T13:11:00.000Z</time>
      </trkpt>
      <trkpt lat="49.35653" lon="5.17887">
        <ele>181.217</ele>
        <time>2019-09-21T13:11:30.000Z</time>
      </trkpt>
      <trkpt lat="49.35574" lon="5.17889">
        <ele>185.245</ele>
        <time>2019-09-21T13:12:00.000Z</time>
      </trkpt>
      <trkpt lat="49.35487" lon="5.17875">
        <ele>187.169</ele>
        <time>2019-09-21T13:12:30.000Z</time>
      </trkpt>
      <trkpt lat="49.35283" lon="5.17837">
        <ele>181.411</ele>
        <time>2019-09-21T13:13:00.000Z</time>
      </trkpt>
      <trkpt lat="49.35075" lon="5.17827">
        <ele>177.396</ele>
        <time>2019-09-21T13:13:30.000Z</time>
      </trkpt>
      <trkpt lat="49.34923" lon="5.17851">
        <ele>176.647</ele>
        <time>2019-09-21T13:14:00.000Z</time>
      </trkpt>
      <trkpt lat="49.34778" lon="5.17885">
        <ele>176.293</ele>
        <time>2019-09-21T13:14:30.000Z</time>
      </trkpt>
      <trkpt lat="49.34649" lon="5.17916">
        <ele>177.358</ele>
        <time>2019-09-21T13:15:00.000Z</time>
      </trkpt>
      <trkpt lat="49.34533" lon="5.17943">
        <ele>180</ele>
        <time>2019-09-21T13:15:30.000Z</time>
      </trkpt>
      <trkpt lat="49.34416" lon="5.17967">
        <ele>176.658</ele>
        <time>2019-09-21T13:16:00.000Z</time>
      </trkpt>
      <trkpt lat="49.34292" lon="5.18032">
        <ele>175.597</ele>
        <time>2019-09-21T13:16:30.000Z</time>
      </trkpt>
      <trkpt lat="49.34169" lon="5.18104">
        <ele>176.238</ele>
        <time>2019-09-21T13:17:00.000Z</time>
      </trkpt>
      <trkpt lat="49.34063" lon="5.18204">
        <ele>176.377</ele>
        <time>2019-09-21T13:17:30.000Z</time>
      </trkpt>
      <trkpt lat="49.33957" lon="5.18312">
        <ele>177.73</ele>
        <time>2019-09-21T13:18:00.000Z</time>
      </trkpt>
      <trkpt lat="49.33847" lon="5.18415">
        <ele>176.278</ele>
        <time>2019-09-21T13:18:30.000Z</time>
      </trkpt>
      <trkpt lat="49.33737" lon="5.18517">
        <ele>175.984</ele>
        <time>2019-09-21T13:19:00.000Z</time>
      </trkpt>
      <trkpt lat="49.33619" lon="5.18627">
        <ele>174.32</ele>
        <time>2019-09-21T13:19:33.000Z</time>
      </trkpt>
      <trkpt lat="49.3354" lon="5.18693">
        <ele>175.976</ele>
        <time>2019-09-21T13:20:03.000Z</time>
      </trkpt>
      <trkpt lat="49.33542" lon="5.18694">
        <ele>176.015</ele>
        <time>2019-09-21T13:23:21.000Z</time>
      </trkpt>
      <trkpt lat="49.33542" lon="5.18691">
        <ele>176.428</ele>
        <time>2019-09-21T13:39:27.000Z</time>
      </trkpt>
      <trkpt lat="49.33542" lon="5.18691">
        <ele>176.428</ele>
        <time>2019-09-21T13:43:09.000Z</time>
      </trkpt>
      <trkpt lat="49.33521" lon="5.18718">
        <ele>177.988</ele>
        <time>2019-09-21T13:46:21.000Z</time>
      </trkpt>
      <trkpt lat="49.33446" lon="5.18816">
        <ele>179.095</ele>
        <time>2019-09-21T13:46:51.000Z</time>
      </trkpt>
      <trkpt lat="49.33371" lon="5.18919">
        <ele>177.404</ele>
        <time>2019-09-21T13:47:21.000Z</time>
      </trkpt>
      <trkpt lat="49.33295" lon="5.18988">
        <ele>178.59</ele>
        <time>2019-09-21T13:47:51.000Z</time>
      </trkpt>
      <trkpt lat="49.33213" lon="5.19136">
        <ele>179.945</ele>
        <time>2019-09-21T13:48:21.000Z</time>
      </trkpt>
      <trkpt lat="49.33149" lon="5.19263">
        <ele>182.239</ele>
        <time>2019-09-21T13:48:51.000Z</time>
      </trkpt>
      <trkpt lat="49.33076" lon="5.19449">
        <ele>180.486</ele>
        <time>2019-09-21T13:49:21.000Z</time>
      </trkpt>
      <trkpt lat="49.33" lon="5.19648">
        <ele>182.809</ele>
        <time>2019-09-21T13:49:51.000Z</time>
      </trkpt>
      <trkpt lat="49.32939" lon="5.19842">
        <ele>178.956</ele>
        <time>2019-09-21T13:50:21.000Z</time>
      </trkpt>
      <trkpt lat="49.32877" lon="5.20052">
        <ele>181.687</ele>
        <time>2019-09-21T13:50:51.000Z</time>
      </trkpt>
      <trkpt lat="49.32815" lon="5.20231">
        <ele>182.645</ele>
        <time>2019-09-21T13:51:21.000Z</time>
      </trkpt>
      <trkpt lat="49.32748" lon="5.20407">
        <ele>184.965</ele>
        <time>2019-09-21T13:51:51.000Z</time>
      </trkpt>
      <trkpt lat="49.32686" lon="5.20562">
        <ele>179.901</ele>
        <time>2019-09-21T13:52:21.000Z</time>
      </trkpt>
      <trkpt lat="49.32645" lon="5.2072">
        <ele>185.849</ele>
        <time>2019-09-21T13:52:51.000Z</time>
      </trkpt>
      <trkpt lat="49.32607" lon="5.20859">
        <ele>189.157</ele>
        <time>2019-09-21T13:53:21.000Z</time>
      </trkpt>
      <trkpt lat="49.32544" lon="5.21018">
        <ele>187.439</ele>
        <time>2019-09-21T13:53:51.001Z</time>
      </trkpt>
      <trkpt lat="49.3247" lon="5.21214">
        <ele>180.697</ele>
        <time>2019-09-21T13:54:21.000Z</time>
      </trkpt>
      <trkpt lat="49.32416" lon="5.21402">
        <ele>178.79</ele>
        <time>2019-09-21T13:54:51.000Z</time>
      </trkpt>
      <trkpt lat="49.32378" lon="5.21608">
        <ele>176.313</ele>
        <time>2019-09-21T13:55:21.000Z</time>
      </trkpt>
      <trkpt lat="49.32352" lon="5.21822">
        <ele>176.916</ele>
        <time>2019-09-21T13:55:51.000Z</time>
      </trkpt>
      <trkpt lat="49.32331" lon="5.22011">
        <ele>183.216</ele>
        <time>2019-09-21T13:56:21.000Z</time>
      </trkpt>
      <trkpt lat="49.32322" lon="5.2222">
        <ele>193.169</ele>
        <time>2019-09-21T13:56:51.000Z</time>
      </trkpt>
      <trkpt lat="49.32317" lon="5.22434">
        <ele>188.528</ele>
        <time>2019-09-21T13:57:21.000Z</time>
      </trkpt>
      <trkpt lat="49.32311" lon="5.22638">
        <ele>184.56</ele>
        <time>2019-09-21T13:57:51.000Z</time>
      </trkpt>
      <trkpt lat="49.3231" lon="5.22837">
        <ele>181.712</ele>
        <time>2019-09-21T13:58:21.000Z</time>
      </trkpt>
      <trkpt lat="49.32328" lon="5.23047">
        <ele>178.098</ele>
        <time>2019-09-21T13:58:51.000Z</time>
      </trkpt>
      <trkpt lat="49.32347" lon="5.23252">
        <ele>176.312</ele>
        <time>2019-09-21T13:59:21.000Z</time>
      </trkpt>
      <trkpt lat="49.32365" lon="5.2345">
        <ele>178.056</ele>
        <time>2019-09-21T13:59:51.000Z</time>
      </trkpt>
      <trkpt lat="49.32387" lon="5.23652">
        <ele>178.272</ele>
        <time>2019-09-21T14:00:21.000Z</time>
      </trkpt>
      <trkpt lat="49.32413" lon="5.23859">
        <ele>180.213</ele>
        <time>2019-09-21T14:00:51.000Z</time>
      </trkpt>
      <trkpt lat="49.32432" lon="5.24033">
        <ele>179.958</ele>
        <time>2019-09-21T14:01:21.000Z</time>
      </trkpt>
      <trkpt lat="49.32453" lon="5.242">
        <ele>181.039</ele>
        <time>2019-09-21T14:01:51.000Z</time>
      </trkpt>
      <trkpt lat="49.32474" lon="5.24371">
        <ele>181.19</ele>
        <time>2019-09-21T14:02:21.000Z</time>
      </trkpt>
      <trkpt lat="49.32494" lon="5.24536">
        <ele>182.887</ele>
        <time>2019-09-21T14:02:51.000Z</time>
      </trkpt>
      <trkpt lat="49.32509" lon="5.24687">
        <ele>187.013</ele>
        <time>2019-09-21T14:03:21.000Z</time>
      </trkpt>
      <trkpt lat="49.3253" lon="5.24844">
        <ele>183.429</ele>
        <time>2019-09-21T14:03:51.000Z</time>
      </trkpt>
      <trkpt lat="49.32546" lon="5.24991">
        <ele>185.222</ele>
        <time>2019-09-21T14:04:21.000Z</time>
      </trkpt>
      <trkpt lat="49.32563" lon="5.25124">
        <ele>190.1</ele>
        <time>2019-09-21T14:04:51.000Z</time>
      </trkpt>
      <trkpt lat="49.32576" lon="5.25245">
        <ele>191.276</ele>
        <time>2019-09-21T14:05:21.000Z</time>
      </trkpt>
      <trkpt lat="49.32566" lon="5.25381">
        <ele>190.429</ele>
        <time>2019-09-21T14:05:51.000Z</time>
      </trkpt>
      <trkpt lat="49.32483" lon="5.25456">
        <ele>188.56</ele>
        <time>2019-09-21T14:06:21.000Z</time>
      </trkpt>
      <trkpt lat="49.3231" lon="5.25436">
        <ele>190.158</ele>
        <time>2019-09-21T14:06:51.000Z</time>
      </trkpt>
      <trkpt lat="49.32076" lon="5.25374">
        <ele>180.783</ele>
        <time>2019-09-21T14:07:21.000Z</time>
      </trkpt>
      <trkpt lat="49.31922" lon="5.25299">
        <ele>178.087</ele>
        <time>2019-09-21T14:07:51.000Z</time>
      </trkpt>
      <trkpt lat="49.31788" lon="5.25222">
        <ele>178.72</ele>
        <time>2019-09-21T14:08:21.000Z</time>
      </trkpt>
      <trkpt lat="49.31652" lon="5.25182">
        <ele>179.762</ele>
        <time>2019-09-21T14:08:51.000Z</time>
      </trkpt>
      <trkpt lat="49.31498" lon="5.25169">
        <ele>179.602</ele>
        <time>2019-09-21T14:09:21.000Z</time>
      </trkpt>
      <trkpt lat="49.31365" lon="5.25208">
        <ele>178.158</ele>
        <time>2019-09-21T14:09:51.000Z</time>
      </trkpt>
      <trkpt lat="49.31245" lon="5.25248">
        <ele>179.473</ele>
        <time>2019-09-21T14:10:21.000Z</time>
      </trkpt>
      <trkpt lat="49.31083" lon="5.25303">
        <ele>180.96</ele>
        <time>2019-09-21T14:10:51.000Z</time>
      </trkpt>
      <trkpt lat="49.30975" lon="5.25341">
        <ele>182.406</ele>
        <time>2019-09-21T14:11:21.000Z</time>
      </trkpt>
      <trkpt lat="49.30882" lon="5.2537">
        <ele>186.599</ele>
        <time>2019-09-21T14:11:51.000Z</time>
      </trkpt>
      <trkpt lat="49.30692" lon="5.25348">
        <ele>184.169</ele>
        <time>2019-09-21T14:12:21.000Z</time>
      </trkpt>
      <trkpt lat="49.3057" lon="5.25369">
        <ele>180.365</ele>
        <time>2019-09-21T14:12:51.000Z</time>
      </trkpt>
      <trkpt lat="49.30488" lon="5.25422">
        <ele>179.171</ele>
        <time>2019-09-21T14:13:24.000Z</time>
      </trkpt>
      <trkpt lat="49.30422" lon="5.25471">
        <ele>182.934</ele>
        <time>2019-09-21T14:13:54.000Z</time>
      </trkpt>
      <trkpt lat="49.30356" lon="5.2552">
        <ele>186.638</ele>
        <time>2019-09-21T14:14:24.000Z</time>
      </trkpt>
      <trkpt lat="49.30274" lon="5.25576">
        <ele>191.112</ele>
        <time>2019-09-21T14:14:54.000Z</time>
      </trkpt>
      <trkpt lat="49.3018" lon="5.25638">
        <ele>192.791</ele>
        <time>2019-09-21T14:15:24.000Z</time>
      </trkpt>
      <trkpt lat="49.30082" lon="5.25707">
        <ele>192.23</ele>
        <time>2019-09-21T14:15:54.000Z</time>
      </trkpt>
      <trkpt lat="49.29977" lon="5.25781">
        <ele>195.765</ele>
        <time>2019-09-21T14:16:24.000Z</time>
      </trkpt>
      <trkpt lat="49.29878" lon="5.25857">
        <ele>196.685</ele>
        <time>2019-09-21T14:16:54.000Z</time>
      </trkpt>
      <trkpt lat="49.29779" lon="5.25928">
        <ele>191.962</ele>
        <time>2019-09-21T14:17:24.000Z</time>
      </trkpt>
      <trkpt lat="49.29701" lon="5.25993">
        <ele>198.878</ele>
        <time>2019-09-21T14:17:54.000Z</time>
      </trkpt>
      <trkpt lat="49.29636" lon="5.26053">
        <ele>202.878</ele>
        <time>2019-09-21T14:18:24.000Z</time>
      </trkpt>
      <trkpt lat="49.29571" lon="5.26111">
        <ele>205.412</ele>
        <time>2019-09-21T14:18:54.000Z</time>
      </trkpt>
      <trkpt lat="49.29498" lon="5.26177">
        <ele>205.6</ele>
        <time>2019-09-21T14:19:24.000Z</time>
      </trkpt>
      <trkpt lat="49.2941" lon="5.26246">
        <ele>205.535</ele>
        <time>2019-09-21T14:19:54.000Z</time>
      </trkpt>
      <trkpt lat="49.29305" lon="5.26328">
        <ele>207.403</ele>
        <time>2019-09-21T14:20:24.000Z</time>
      </trkpt>
      <trkpt lat="49.29208" lon="5.2641">
        <ele>207.804</ele>
        <time>2019-09-21T14:20:54.000Z</time>
      </trkpt>
      <trkpt lat="49.29115" lon="5.26489">
        <ele>206.229</ele>
        <time>2019-09-21T14:21:24.000Z</time>
      </trkpt>
      <trkpt lat="49.29012" lon="5.26554">
        <ele>207.692</ele>
        <time>2019-09-21T14:21:54.000Z</time>
      </trkpt>
      <trkpt lat="49.28915" lon="5.26642">
        <ele>208.892</ele>
        <time>2019-09-21T14:22:24.000Z</time>
      </trkpt>
      <trkpt lat="49.28808" lon="5.26775">
        <ele>208.42</ele>
        <time>2019-09-21T14:22:54.000Z</time>
      </trkpt>
      <trkpt lat="49.28613" lon="5.26974">
        <ele>203.492</ele>
        <time>2019-09-21T14:23:24.000Z</time>
      </trkpt>
      <trkpt lat="49.28427" lon="5.27272">
        <ele>187.088</ele>
        <time>2019-09-21T14:23:54.000Z</time>
      </trkpt>
      <trkpt lat="49.28232" lon="5.27466">
        <ele>180.744</ele>
        <time>2019-09-21T14:24:24.000Z</time>
      </trkpt>
      <trkpt lat="49.28234" lon="5.27652">
        <ele>182.864</ele>
        <time>2019-09-21T14:24:54.000Z</time>
      </trkpt>
      <trkpt lat="49.28287" lon="5.27821">
        <ele>183.278</ele>
        <time>2019-09-21T14:25:24.000Z</time>
      </trkpt>
      <trkpt lat="49.28335" lon="5.2798">
        <ele>183.613</ele>
        <time>2019-09-21T14:25:54.000Z</time>
      </trkpt>
      <trkpt lat="49.28394" lon="5.28138">
        <ele>184.014</ele>
        <time>2019-09-21T14:26:24.000Z</time>
      </trkpt>
      <trkpt lat="49.28458" lon="5.28249">
        <ele>185.53</ele>
        <time>2019-09-21T14:26:54.000Z</time>
      </trkpt>
      <trkpt lat="49.28418" lon="5.28304">
        <ele>187.322</ele>
        <time>2019-09-21T14:32:15.000Z</time>
      </trkpt>
      <trkpt lat="49.28365" lon="5.28391">
        <ele>187.244</ele>
        <time>2019-09-21T14:32:45.000Z</time>
      </trkpt>
    </trkseg>
  </trk>
</gpx>